仁川, 大韓民國

2014年10月24日 05時34分 (GMT +0900)
Incheon International | Change Station
CLOSE
Current Station
機場
Location: Incheon,
海拔: 23 ft
附近的氣象站

海拔 23 ft 37.47 °N, 126.45 °E | Updated 34 minutes ago

Scattered Clouds
多雲時晴
55 °F
感覺像 55 °F
8
風 變化 風 來自 東南

今日
高 -- | 低 -- °F
--% 降水機率
昨天
高 -- | 低 -- °F
Precip. -- 英寸
6:49 AM 5:45 PM
殘月, 0% visible
氣壓 30.09 英寸
能見度 3.1 英里
多雲 多雲時晴 2500 ft
露點 52 °F
濕度 88%
降雨量 0.00 英寸
積雪深度 不適用。
紫外線 0 / 12
花粉 不適用。
空氣質素 不適用。
Flu Activity 不適用。
METAR RKSI 232000Z 14007KT 5000 BR SCT025 13/11 Q1019 NOSIG

More Conditions Fewer Conditions

氣壓 30.09 英寸
能見度 3.1 英里
多雲 多雲時晴 2500 ft
露點 52 °F
濕度 88%
降雨量 0.00 英寸
積雪深度 不適用。
紫外線 0 / 12
花粉 不適用。
空氣質素 不適用。
Flu Activity 不適用。
METAR RKSI 232000Z 14007KT 5000 BR SCT025 13/11 Q1019 NOSIG

More Conditions Fewer Conditions

10-Day Weather Forecast

Almanac

天文

Oct. 24, 2014 昇起 降落
實際時間 06:49 KST 17:45 KST
民用曙暮光 06:23 KST 18:11 KST
航海曙暮光 05:52 KST 18:42 KST
天文學微明 05:22 KST 19:12 KST
月亮 06:52 KST (10/24) 18:02 KST (10/24)
可見光的長度 11h 48m
白晝時間
10h 55m
Tomorrow will be 2m 14s shorter.
殘月, 0% of the Moon is Illuminated
10月 23
殘月
10月 23
10月 30
第一季
11月 6
滿月
11月 14
第四季

昨天之最

國家高溫 國家低溫

Community

WunderPhotos

Upload Photos

1,764,361 照片已上傳!

WunderBlogs® & News

By Dr. Jeff Masters
Director of Meteorology, Weather Underground
By Kari Strenfel
Meteorologist, Weather Underground
By Christopher C. Burt
Weather Historian, Weather Underground
October 23, 2014
October 23, 2014
October 23, 2014

Nearby

積雪量

Not available.

地震活動

城市 距離 時間和日期
附近沒有最近發生的地震活動。
顯示的最小幅度是2.5。

沿海水溫

地點 溫度
無任何天氣監測站報告

附近的氣象站